createdAt,value
2017-10-09T00:01:02.389Z,6.36
2017-10-09T00:02:12.626Z,6.43
2017-10-09T00:03:22.800Z,6.35
2017-10-09T00:04:32.727Z,6.43
2017-10-09T00:05:42.966Z,6.34
2017-10-09T00:06:53.207Z,6.36
2017-10-09T00:08:03.146Z,6.43
2017-10-09T00:09:13.653Z,6.38
2017-10-09T00:10:23.893Z,6.43
2017-10-09T00:11:33.811Z,6.38
2017-10-09T00:12:44.049Z,6.36
2017-10-09T00:13:54.281Z,6.41
2017-10-09T00:15:04.774Z,6.43
2017-10-09T00:16:15.027Z,6.52
2017-10-09T00:17:25.276Z,6.47
2017-10-09T00:18:35.517Z,6.54
2017-10-09T00:19:45.775Z,6.53
2017-10-09T00:20:56.019Z,6.43
2017-10-09T00:22:06.270Z,6.49
2017-10-09T00:23:16.526Z,6.38
2017-10-09T00:24:26.775Z,6.39
2017-10-09T00:25:37.004Z,6.36
2017-10-09T00:26:47.230Z,6.38
2017-10-09T00:27:57.156Z,6.46
2017-10-09T00:29:07.095Z,6.39
2017-10-09T00:30:17.335Z,6.47
2017-10-09T00:31:27.576Z,6.35
2017-10-09T00:32:38.067Z,6.43
2017-10-09T00:33:48.320Z,6.41
2017-10-09T00:34:58.556Z,6.39
2017-10-09T00:36:08.479Z,6.36
2017-10-09T00:37:18.715Z,6.39
2017-10-09T00:38:29.206Z,6.36
2017-10-09T00:39:39.442Z,6.35
2017-10-09T00:40:49.042Z,6.34
2017-10-09T00:41:59.277Z,6.35
2017-10-09T00:43:09.206Z,6.38
2017-10-09T00:44:19.706Z,6.39
2017-10-09T00:45:29.637Z,6.26
2017-10-09T00:46:39.871Z,6.34
2017-10-09T00:47:49.795Z,6.35
2017-10-09T00:49:00.025Z,6.32
2017-10-09T00:50:10.214Z,6.29
2017-10-09T00:51:20.459Z,6.28
2017-10-09T00:52:30.693Z,6.31
2017-10-09T00:53:40.946Z,6.29
2017-10-09T00:54:51.187Z,6.35
2017-10-09T00:56:01.672Z,6.34
2017-10-09T00:57:11.611Z,6.39
2017-10-09T00:58:21.844Z,6.41
2017-10-09T00:59:32.077Z,6.31
2017-10-09T01:00:42.311Z,6.31
2017-10-09T01:01:52.841Z,6.36
2017-10-09T01:03:03.135Z,6.32
2017-10-09T01:04:13.378Z,6.26
2017-10-09T01:05:23.300Z,6.26
2017-10-09T01:06:33.229Z,6.39
2017-10-09T01:07:42.769Z,6.32
2017-10-09T01:08:53.041Z,6.32
2017-10-09T01:10:03.270Z,6.28
2017-10-09T01:11:12.890Z,6.26
2017-10-09T01:12:23.134Z,6.32
2017-10-09T01:13:33.656Z,6.32
2017-10-09T01:14:43.901Z,6.31
2017-10-09T01:15:53.836Z,6.28
2017-10-09T01:17:04.067Z,6.34
2017-10-09T01:18:13.997Z,6.32
2017-10-09T01:19:24.173Z,6.22
2017-10-09T01:20:34.417Z,6.22
2017-10-09T01:21:44.663Z,6.19
2017-10-09T01:22:54.892Z,6.13
2017-10-09T01:24:05.131Z,6.16
2017-10-09T01:25:15.619Z,6.1
2017-10-09T01:26:25.846Z,6.12
2017-10-09T01:27:35.459Z,6.13
2017-10-09T01:28:45.379Z,6.12
2017-10-09T01:29:55.619Z,6.09
2017-10-09T01:31:06.104Z,6.09
2017-10-09T01:32:16.342Z,6.12
2017-10-09T01:33:26.593Z,6.13
2017-10-09T01:34:36.836Z,6.13
2017-10-09T01:35:47.063Z,6.13
2017-10-09T01:36:57.550Z,6.09
2017-10-09T01:38:07.473Z,6.09
2017-10-09T01:39:17.706Z,5.99
2017-10-09T01:40:27.618Z,6.01
2017-10-09T01:41:37.885Z,6.06
2017-10-09T01:42:48.060Z,5.97
2017-10-09T01:43:57.982Z,5.97
2017-10-09T01:45:08.238Z,5.91
2017-10-09T01:46:18.471Z,5.97
2017-10-09T01:47:28.085Z,5.87
2017-10-09T01:48:38.259Z,5.97
2017-10-09T01:49:48.500Z,5.95
2017-10-09T01:50:58.724Z,5.95
2017-10-09T01:52:08.958Z,5.88
2017-10-09T01:53:18.871Z,5.94
2017-10-09T01:54:29.355Z,5.95
2017-10-09T01:55:39.631Z,5.92
2017-10-09T01:56:49.558Z,5.84
2017-10-09T01:57:59.829Z,5.9
2017-10-09T01:59:10.081Z,5.9
2017-10-09T02:00:20.002Z,5.84
2017-10-09T02:01:29.943Z,5.79
2017-10-09T02:02:39.872Z,5.83
2017-10-09T02:03:50.110Z,5.81
2017-10-09T02:05:00.340Z,5.77
2017-10-09T02:06:10.850Z,5.72
2017-10-09T02:07:21.099Z,5.74
2017-10-09T02:08:31.023Z,5.7
2017-10-09T02:09:41.307Z,5.8
2017-10-09T02:10:51.543Z,5.7
2017-10-09T02:12:01.711Z,5.77
2017-10-09T02:13:11.958Z,5.79
2017-10-09T02:14:21.879Z,5.76
2017-10-09T02:15:32.113Z,5.79
2017-10-09T02:16:42.339Z,5.72
2017-10-09T02:17:52.834Z,5.8
2017-10-09T02:19:03.080Z,5.74
2017-10-09T02:20:13.008Z,5.62
2017-10-09T02:21:22.933Z,5.76
2017-10-09T02:22:33.184Z,5.7
2017-10-09T02:23:43.677Z,5.7
2017-10-09T02:24:53.912Z,5.64
2017-10-09T02:26:03.825Z,5.65
2017-10-09T02:27:14.067Z,5.72
2017-10-09T02:28:24.303Z,5.69
2017-10-09T02:29:34.517Z,5.69
2017-10-09T02:30:44.435Z,5.69
2017-10-09T02:31:54.035Z,5.69
2017-10-09T02:33:04.268Z,5.61
2017-10-09T02:34:14.201Z,5.61
2017-10-09T02:35:24.389Z,5.7
2017-10-09T02:36:34.632Z,5.59
2017-10-09T02:37:44.565Z,5.52
2017-10-09T02:38:54.489Z,5.64
2017-10-09T02:40:04.733Z,5.56
2017-10-09T02:41:14.994Z,5.46
2017-10-09T02:42:25.233Z,5.54
2017-10-09T02:43:35.469Z,5.44
2017-10-09T02:44:45.706Z,5.43
2017-10-09T02:45:55.963Z,5.44
2017-10-09T02:47:06.458Z,5.47
2017-10-09T02:48:16.380Z,5.44
2017-10-09T02:49:26.293Z,5.51
2017-10-09T02:50:36.526Z,5.44
2017-10-09T02:51:46.760Z,5.41
2017-10-09T02:52:57.274Z,5.34
2017-10-09T02:54:07.503Z,5.43
2017-10-09T02:55:17.747Z,5.33
2017-10-09T02:56:27.987Z,5.37
2017-10-09T02:57:38.220Z,5.41
2017-10-09T02:58:48.703Z,5.31
2017-10-09T02:59:58.625Z,5.38
2017-10-09T03:01:08.866Z,5.31
2017-10-09T03:02:19.104Z,5.31
2017-10-09T03:03:29.343Z,5.23
2017-10-09T03:04:39.837Z,5.28
2017-10-09T03:05:50.068Z,5.25
2017-10-09T03:07:00.299Z,5.23
2017-10-09T03:08:10.553Z,5.26
2017-10-09T03:09:20.781Z,5.31
2017-10-09T03:10:30.640Z,5.25
2017-10-09T03:11:40.876Z,5.28
2017-10-09T03:12:50.808Z,5.25
2017-10-09T03:14:00.417Z,5.2
2017-10-09T03:15:10.345Z,5.22
2017-10-09T03:16:20.836Z,5.16
2017-10-09T03:17:30.759Z,5.22
2017-10-09T03:18:40.676Z,5.13
2017-10-09T03:19:50.596Z,5.25
2017-10-09T03:21:00.519Z,5.25
2017-10-09T03:22:11.023Z,5.22
2017-10-09T03:23:21.264Z,5.18
2017-10-09T03:24:31.494Z,5.25
2017-10-09T03:25:41.729Z,5.19
2017-10-09T03:26:51.652Z,5.19
2017-10-09T03:28:01.819Z,5.15
2017-10-09T03:29:11.739Z,5.15
2017-10-09T03:30:21.976Z,5.15
2017-10-09T03:31:32.215Z,5.13
2017-10-09T03:32:42.131Z,5.15
2017-10-09T03:33:52.627Z,5.16
2017-10-09T03:35:02.860Z,5.16
2017-10-09T03:36:12.807Z,5.16
2017-10-09T03:37:23.038Z,5.1
2017-10-09T03:38:33.265Z,5.05
2017-10-09T03:39:43.767Z,5.22
2017-10-09T03:40:53.694Z,5.16
2017-10-09T03:42:03.928Z,5.15
2017-10-09T03:43:14.164Z,5.18
2017-10-09T03:44:24.103Z,5.15
2017-10-09T03:45:34.585Z,5.13
2017-10-09T03:46:44.824Z,5.15
2017-10-09T03:47:55.062Z,5.1
2017-10-09T03:49:05.299Z,5.1
2017-10-09T03:50:15.540Z,5.19
2017-10-09T03:51:26.020Z,5.13
2017-10-09T03:52:36.264Z,5.2
2017-10-09T03:53:46.498Z,5.16
2017-10-09T03:54:56.734Z,5.12
2017-10-09T03:56:06.655Z,5.02
2017-10-09T03:57:17.133Z,5.15
2017-10-09T03:58:27.047Z,5.1
2017-10-09T03:59:36.658Z,5.01
2017-10-09T04:00:46.578Z,5.02
2017-10-09T04:01:56.814Z,5.05
2017-10-09T04:03:07.298Z,4.95
2017-10-09T04:04:17.266Z,5.04
2017-10-09T04:05:26.881Z,5.05
2017-10-09T04:06:37.114Z,5.15
2017-10-09T04:07:47.038Z,5.12
2017-10-09T04:08:57.528Z,5.13
2017-10-09T04:10:07.761Z,5.16
2017-10-09T04:11:17.687Z,5.1
2017-10-09T04:12:27.918Z,5.15
2017-10-09T04:13:38.394Z,5.18
2017-10-09T04:14:48.885Z,5.15
2017-10-09T04:15:59.117Z,5.1
2017-10-09T04:17:09.342Z,5.02
2017-10-09T04:18:19.579Z,5
2017-10-09T04:19:29.817Z,5.01
2017-10-09T04:20:39.988Z,5.08
2017-10-09T04:21:49.602Z,5.07
2017-10-09T04:22:59.842Z,5.08
2017-10-09T04:24:10.089Z,5.02
2017-10-09T04:25:20.318Z,5.05
2017-10-09T04:26:30.858Z,5.1
2017-10-09T04:27:40.770Z,5.04
2017-10-09T04:28:51.017Z,5
2017-10-09T04:30:01.258Z,5.04
2017-10-09T04:31:11.500Z,5.01
2017-10-09T04:32:22.035Z,4.98
2017-10-09T04:33:32.291Z,5.01
2017-10-09T04:34:42.527Z,5.02
2017-10-09T04:35:52.464Z,4.98
2017-10-09T04:37:02.700Z,4.94
2017-10-09T04:38:13.193Z,4.95
2017-10-09T04:39:23.112Z,4.98
2017-10-09T04:40:33.345Z,4.89
2017-10-09T04:41:43.262Z,5.01
2017-10-09T04:42:53.189Z,4.87
2017-10-09T04:44:03.676Z,4.89
2017-10-09T04:45:13.922Z,5
2017-10-09T04:46:23.853Z,4.82
2017-10-09T04:47:34.092Z,4.83
2017-10-09T04:48:44.020Z,4.84
2017-10-09T04:49:54.523Z,4.87
2017-10-09T04:51:04.443Z,4.83
2017-10-09T04:52:14.692Z,4.84
2017-10-09T04:53:24.930Z,4.86
2017-10-09T04:54:35.182Z,4.92
2017-10-09T04:55:45.665Z,4.68
2017-10-09T04:56:55.604Z,4.67
2017-10-09T04:58:05.864Z,4.83
2017-10-09T04:59:16.105Z,4.89
2017-10-09T05:00:26.343Z,4.78
2017-10-09T05:01:36.831Z,4.78
2017-10-09T05:02:47.069Z,4.86
2017-10-09T05:03:56.676Z,4.84
2017-10-09T05:05:06.911Z,4.67
2017-10-09T05:06:16.871Z,4.67
2017-10-09T05:07:27.353Z,4.86
2017-10-09T05:08:37.272Z,4.74
2017-10-09T05:09:47.187Z,4.7
2017-10-09T05:10:57.427Z,4.7
2017-10-09T05:12:07.674Z,4.68
2017-10-09T05:13:18.166Z,4.71
2017-10-09T05:14:28.397Z,4.89
2017-10-09T05:15:38.625Z,4.83
2017-10-09T05:16:48.867Z,4.86
2017-10-09T05:17:59.098Z,4.75
2017-10-09T05:19:09.594Z,4.84
2017-10-09T05:20:19.842Z,4.7
2017-10-09T05:21:30.072Z,4.83
2017-10-09T05:22:40.301Z,4.86
2017-10-09T05:23:50.543Z,4.82
2017-10-09T05:25:01.038Z,4.82
2017-10-09T05:26:10.982Z,4.84
2017-10-09T05:27:21.219Z,4.84
2017-10-09T05:28:31.455Z,4.84
2017-10-09T05:29:41.690Z,4.86
2017-10-09T05:30:51.861Z,4.86
2017-10-09T05:32:01.467Z,4.84
2017-10-09T05:33:11.700Z,4.83
2017-10-09T05:34:21.306Z,5
2017-10-09T05:35:31.545Z,4.98
2017-10-09T05:36:42.045Z,5.01
2017-10-09T05:37:52.290Z,4.95
2017-10-09T05:39:02.530Z,4.97
2017-10-09T05:40:12.804Z,4.97
2017-10-09T05:41:23.031Z,4.97
2017-10-09T05:42:33.530Z,5.05
2017-10-09T05:43:43.770Z,5.02
2017-10-09T05:44:54.026Z,4.98
2017-10-09T05:46:03.956Z,4.98
2017-10-09T05:47:14.216Z,4.9
2017-10-09T05:48:24.391Z,5.02
2017-10-09T05:49:34.056Z,5.01
2017-10-09T05:50:44.295Z,5.01
2017-10-09T05:51:54.544Z,5.04
2017-10-09T05:53:04.767Z,5.02
2017-10-09T05:54:15.322Z,5.02
2017-10-09T05:55:25.585Z,5.01
2017-10-09T05:56:35.857Z,4.98
2017-10-09T05:57:46.132Z,5
2017-10-09T05:58:56.404Z,5.01
2017-10-09T06:00:06.913Z,5.01
2017-10-09T06:01:17.241Z,4.97
2017-10-09T06:02:27.187Z,5
2017-10-09T06:03:37.133Z,5.04
2017-10-09T06:04:47.112Z,5.02
2017-10-09T06:05:57.285Z,4.98
2017-10-09T06:07:07.523Z,5.01
2017-10-09T06:08:17.448Z,5.05
2017-10-09T06:09:27.410Z,5.07
2017-10-09T06:10:37.665Z,5.05
2017-10-09T06:11:48.172Z,5.05
2017-10-09T06:12:57.787Z,5.01
2017-10-09T06:14:07.733Z,5.07
2017-10-09T06:15:17.979Z,5.15
2017-10-09T06:16:28.233Z,5.12
2017-10-09T06:17:38.720Z,5.15
2017-10-09T06:18:48.673Z,5.15
2017-10-09T06:19:58.615Z,5.18
2017-10-09T06:21:08.878Z,5.19
2017-10-09T06:22:18.820Z,5.07
2017-10-09T06:23:29.251Z,5.18
2017-10-09T06:24:38.906Z,5.12
2017-10-09T06:25:49.147Z,5.22
2017-10-09T06:26:59.379Z,5.19
2017-10-09T06:28:09.634Z,5.19
2017-10-09T06:29:20.178Z,5.25
2017-10-09T06:30:30.524Z,5.23
2017-10-09T06:31:40.782Z,5.26
2017-10-09T06:32:51.041Z,5.25
2017-10-09T06:34:01.336Z,5.2
2017-10-09T06:35:11.204Z,5.31
2017-10-09T06:36:21.123Z,5.36
2017-10-09T06:37:31.053Z,5.38
2017-10-09T06:38:41.214Z,5.44
2017-10-09T06:39:51.153Z,5.47
2017-10-09T06:41:01.688Z,5.46
2017-10-09T06:42:11.965Z,5.49
2017-10-09T06:43:22.221Z,5.56
2017-10-09T06:44:32.472Z,5.56
2017-10-09T06:45:42.732Z,5.61
2017-10-09T06:46:53.270Z,5.64
2017-10-09T06:48:03.561Z,5.65
2017-10-09T06:49:13.853Z,5.62
2017-10-09T06:50:24.106Z,5.74
2017-10-09T06:51:34.275Z,5.83
2017-10-09T06:52:44.490Z,5.94
2017-10-09T06:53:54.449Z,5.81
2017-10-09T06:55:04.729Z,5.99
2017-10-09T06:56:14.686Z,6.05
2017-10-09T06:57:24.957Z,5.98
2017-10-09T06:58:35.470Z,6.12
2017-10-09T06:59:45.724Z,6.12
2017-10-09T07:00:55.680Z,6.19
2017-10-09T07:02:05.923Z,6.15
2017-10-09T07:03:16.175Z,6.28
2017-10-09T07:04:26.676Z,6.32
2017-10-09T07:05:36.612Z,6.35
2017-10-09T07:06:46.879Z,6.39
2017-10-09T07:07:57.144Z,6.43
2017-10-09T07:09:07.407Z,6.43
2017-10-09T07:10:17.931Z,6.5
2017-10-09T07:11:28.184Z,6.57
2017-10-09T07:12:38.433Z,6.56
2017-10-09T07:13:48.709Z,6.64
2017-10-09T07:14:58.980Z,6.7
2017-10-09T07:16:09.504Z,6.7
2017-10-09T07:17:19.487Z,6.85
2017-10-09T07:18:29.145Z,6.85
2017-10-09T07:19:39.400Z,6.92
2017-10-09T07:20:49.675Z,6.93
2017-10-09T07:22:00.179Z,6.93
2017-10-09T07:23:10.115Z,7.03
2017-10-09T07:24:20.356Z,7.1
2017-10-09T07:25:30.590Z,7.21
2017-10-09T07:26:40.513Z,7.25
2017-10-09T07:27:51.012Z,7.18
2017-10-09T07:29:00.954Z,7.29
2017-10-09T07:30:11.211Z,7.31
2017-10-09T07:31:21.470Z,7.36
2017-10-09T07:32:31.724Z,7.32
2017-10-09T07:33:41.901Z,7.44
2017-10-09T07:34:52.154Z,7.55
2017-10-09T07:36:02.079Z,7.61
2017-10-09T07:37:11.998Z,7.61
2017-10-09T07:38:21.929Z,7.69
2017-10-09T07:39:31.793Z,7.64
2017-10-09T07:40:42.059Z,7.74
2017-10-09T07:41:52.300Z,7.67
2017-10-09T07:43:02.545Z,7.78
2017-10-09T07:44:12.504Z,7.78
2017-10-09T07:45:23.085Z,7.77
2017-10-09T07:46:33.024Z,7.72
2017-10-09T07:47:43.287Z,7.77
2017-10-09T07:48:53.241Z,7.88
2017-10-09T07:50:03.515Z,7.85
2017-10-09T07:51:14.046Z,7.85
2017-10-09T07:52:24.393Z,7.99
2017-10-09T07:53:34.337Z,8.05
2017-10-09T07:54:44.274Z,8.11
2017-10-09T07:55:54.534Z,8.18
2017-10-09T07:57:05.026Z,8.44
2017-10-09T07:58:14.671Z,8.52
2017-10-09T07:59:24.941Z,8.64
2017-10-09T08:00:35.210Z,8.69
2017-10-09T08:01:45.525Z,8.86
2017-10-09T08:02:56.082Z,8.87
2017-10-09T08:04:06.357Z,9.09
2017-10-09T08:05:16.666Z,9.13
2017-10-09T08:06:26.926Z,9.26
2017-10-09T08:07:37.173Z,9.26
2017-10-09T08:08:47.670Z,9.4
2017-10-09T08:09:57.603Z,9.45
2017-10-09T08:11:07.858Z,9.48
2017-10-09T08:12:17.826Z,9.48
2017-10-09T08:13:27.859Z,9.51
2017-10-09T08:14:38.373Z,9.56
2017-10-09T08:15:48.623Z,9.59
2017-10-09T08:16:58.569Z,9.62
2017-10-09T08:18:08.834Z,9.62
2017-10-09T08:19:19.139Z,9.54
2017-10-09T08:20:29.684Z,9.54
2017-10-09T08:21:39.959Z,9.47
2017-10-09T08:22:49.582Z,9.49
2017-10-09T08:23:59.538Z,9.56
2017-10-09T08:25:09.483Z,9.63
2017-10-09T08:26:20.045Z,9.7
2017-10-09T08:27:30.006Z,9.9
2017-10-09T08:28:40.251Z,9.87
2017-10-09T08:29:50.539Z,9.84
2017-10-09T08:31:00.161Z,9.7
2017-10-09T08:32:10.654Z,9.84
2017-10-09T08:33:19.965Z,9.88
2017-10-09T08:34:30.237Z,9.95
2017-10-09T08:35:40.518Z,9.95
2017-10-09T08:36:50.778Z,10.05
2017-10-09T08:38:00.658Z,10.1
2017-10-09T08:39:10.616Z,10.12
2017-10-09T08:44:09.986Z,10.25
2017-10-09T08:51:55.488Z,10.57
2017-10-09T08:54:41.333Z,10.68
2017-10-09T08:59:09.017Z,11.26
2017-10-09T09:01:23.092Z,11.27
2017-10-09T09:04:47.436Z,11.76
2017-10-09T09:07:00.970Z,12.05
2017-10-09T09:09:14.781Z,12.2
2017-10-09T09:10:56.761Z,12.05
2017-10-09T09:16:59.958Z,11.83
2017-10-09T09:31:52.232Z,12.14
2017-10-09T09:39:37.144Z,12.53
2017-10-09T09:40:47.407Z,12.81
2017-10-09T09:51:18.481Z,12.69
2017-10-09T09:53:00.790Z,12.86
2017-10-09T09:55:14.600Z,12.94
2017-10-09T09:56:24.563Z,12.88
2017-10-09T09:57:34.820Z,12.76
2017-10-09T09:58:44.699Z,12.98
2017-10-09T09:59:54.962Z,12.98
2017-10-09T10:01:05.228Z,13.03
2017-10-09T10:02:15.199Z,13.21
2017-10-09T10:03:25.454Z,13.17
2017-10-09T10:04:35.950Z,13.21
2017-10-09T10:05:45.900Z,13.39
2017-10-09T10:06:55.531Z,13.62
2017-10-09T10:08:05.782Z,13.91
2017-10-09T10:09:16.365Z,14.03
2017-10-09T10:10:26.869Z,13.76
2017-10-09T10:11:37.107Z,13.62
2017-10-09T10:12:47.360Z,13.26
2017-10-09T10:13:57.610Z,13.21
2017-10-09T10:15:07.549Z,13.13
2017-10-09T10:16:18.093Z,13.13
2017-10-09T10:17:28.355Z,13.16
2017-10-09T10:18:38.292Z,13.33
2017-10-09T10:19:48.547Z,13.5
2017-10-09T10:20:58.828Z,13.52
2017-10-09T10:22:09.438Z,13.33
2017-10-09T10:23:19.721Z,13.43
2017-10-09T10:24:29.665Z,13.27
2017-10-09T10:25:39.610Z,13.36
2017-10-09T10:26:49.883Z,13.2
2017-10-09T10:28:00.384Z,13.11
2017-10-09T10:29:10.339Z,13.13
2017-10-09T10:30:20.272Z,13.08
2017-10-09T10:31:29.895Z,13.45
2017-10-09T10:32:39.823Z,13.49
2017-10-09T10:33:50.010Z,13.6
2017-10-09T10:35:00.349Z,13.94
2017-10-09T10:36:10.619Z,13.85
2017-10-09T10:37:20.863Z,13.73
2017-10-09T10:38:31.116Z,13.65
2017-10-09T10:39:41.635Z,14.01
2017-10-09T10:40:51.888Z,14.18
2017-10-09T10:42:02.184Z,14.23
2017-10-09T10:43:12.445Z,14.19
2017-10-09T10:44:22.387Z,14.28
2017-10-09T10:45:32.620Z,14.44
2017-10-09T10:46:42.874Z,14.43
2017-10-09T10:47:53.130Z,14.63
2017-10-09T10:49:03.083Z,14.78
2017-10-09T10:50:13.070Z,14.77
2017-10-09T10:51:23.584Z,14.99
2017-10-09T10:52:33.852Z,15.11
2017-10-09T10:53:43.824Z,15.3
2017-10-09T10:54:53.786Z,15.33
2017-10-09T10:56:03.406Z,15.22
2017-10-09T10:57:13.938Z,15.18
2017-10-09T10:58:23.879Z,15.27
2017-10-09T10:59:34.213Z,15.44
2017-10-09T11:00:44.463Z,15.54
2017-10-09T11:01:53.870Z,15.72
2017-10-09T11:03:04.461Z,15.78
2017-10-09T11:04:14.729Z,15.98
2017-10-09T11:05:25.009Z,15.83
2017-10-09T11:06:35.284Z,15.78
2017-10-09T11:07:45.557Z,15.52
2017-10-09T11:08:56.064Z,15.55
2017-10-09T11:10:06.335Z,15.17
2017-10-09T11:11:16.625Z,14.86
2017-10-09T11:12:26.604Z,14.38
2017-10-09T11:13:36.549Z,14.41
2017-10-09T11:14:47.082Z,14.55
2017-10-09T11:15:57.383Z,14.55
2017-10-09T11:17:07.326Z,14.63
2017-10-09T11:18:17.602Z,14.63
2017-10-09T11:19:27.858Z,14.77
2017-10-09T11:20:38.072Z,14.81
2017-10-09T11:21:48.361Z,14.89
2017-10-09T11:22:58.296Z,14.85
2017-10-09T11:24:08.241Z,14.7
2017-10-09T11:25:18.499Z,14.82
2017-10-09T11:26:29.049Z,14.87
2017-10-09T11:27:38.988Z,14.56
2017-10-09T11:28:49.234Z,14.56
2017-10-09T11:29:58.860Z,14.56
2017-10-09T11:31:08.490Z,14.61
2017-10-09T11:32:18.991Z,14.68
2017-10-09T11:33:29.259Z,14.3
2017-10-09T11:34:39.520Z,14.12
2017-10-09T11:35:49.819Z,14.23
2017-10-09T11:37:00.077Z,14.53
2017-10-09T11:38:09.958Z,14.68
2017-10-09T11:39:20.214Z,14.99
2017-10-09T11:40:30.462Z,15.15
2017-10-09T11:41:40.411Z,15.17
2017-10-09T11:42:50.681Z,15.25
2017-10-09T11:44:01.189Z,15.36
2017-10-09T11:45:11.436Z,15.35
2017-10-09T11:46:21.385Z,15.39
2017-10-09T11:47:31.646Z,15.25
2017-10-09T11:48:41.924Z,15
2017-10-09T11:49:52.421Z,14.61
2017-10-09T11:51:02.351Z,14.52
2017-10-09T11:52:12.631Z,14.34
2017-10-09T11:53:22.887Z,14.31
2017-10-09T11:54:33.451Z,14.53
2017-10-09T11:55:43.341Z,14.7
2017-10-09T11:56:53.602Z,14.79
2017-10-09T11:58:03.865Z,14.62
2017-10-09T11:59:14.120Z,14.53
2017-10-09T12:00:24.384Z,14.36
2017-10-09T12:01:34.577Z,14.34
2017-10-09T12:02:44.206Z,14.62
2017-10-09T12:03:53.534Z,14.73
2017-10-09T12:05:03.480Z,15
2017-10-09T12:06:13.430Z,15.05
2017-10-09T12:07:23.961Z,14.97
2017-10-09T12:08:34.263Z,14.9
2017-10-09T12:09:44.228Z,14.68
2017-10-09T12:10:54.507Z,14.77
2017-10-09T12:12:04.473Z,14.49
2017-10-09T12:13:15.001Z,14.22
2017-10-09T12:14:25.278Z,14.15
2017-10-09T12:15:35.531Z,14.08
2017-10-09T12:16:45.799Z,14.08
2017-10-09T12:17:55.782Z,14.05
2017-10-09T12:19:06.295Z,14.04
2017-10-09T12:20:16.545Z,13.97
2017-10-09T12:21:26.489Z,13.89
2017-10-09T12:22:36.450Z,13.78
2017-10-09T12:23:46.418Z,13.71
2017-10-09T12:24:56.939Z,13.65
2017-10-09T12:26:06.941Z,13.68
2017-10-09T12:27:16.585Z,13.61
2017-10-09T12:28:26.524Z,13.58
2017-10-09T12:29:36.785Z,13.62
2017-10-09T12:30:47.004Z,13.54
2017-10-09T12:31:57.263Z,13.52
2017-10-09T12:33:06.888Z,13.45
2017-10-09T12:34:17.149Z,13.58
2017-10-09T12:35:27.413Z,13.58
2017-10-09T12:36:37.931Z,13.64
2017-10-09T12:37:48.191Z,13.6
2017-10-09T12:38:58.445Z,13.55
2017-10-09T12:40:08.703Z,13.62
2017-10-09T12:41:18.944Z,13.76
2017-10-09T12:42:29.459Z,14.03
2017-10-09T12:43:39.389Z,13.95
2017-10-09T12:44:49.655Z,13.89
2017-10-09T12:45:59.900Z,14.07
2017-10-09T12:47:10.152Z,14.07
2017-10-09T12:48:20.342Z,14.07
2017-10-09T12:49:30.602Z,14.07
2017-10-09T12:50:40.538Z,14.04
2017-10-09T12:51:50.805Z,14.03
2017-10-09T12:53:01.059Z,14.03
2017-10-09T12:54:11.566Z,13.93
2017-10-09T12:55:21.834Z,13.93
2017-10-09T12:56:32.076Z,13.83
2017-10-09T12:57:42.341Z,13.86
2017-10-09T12:58:52.606Z,13.76
2017-10-09T13:00:03.108Z,13.78
2017-10-09T13:01:13.362Z,13.91
2017-10-09T13:02:23.622Z,13.95
2017-10-09T13:03:33.245Z,13.95
2017-10-09T13:04:43.189Z,14.01
2017-10-09T13:05:53.711Z,14.25
2017-10-09T13:07:03.987Z,14.3
2017-10-09T13:08:14.227Z,14.34
2017-10-09T13:09:24.171Z,14.56
2017-10-09T13:10:34.432Z,14.3
2017-10-09T13:11:44.938Z,14.28
2017-10-09T13:12:55.225Z,14.26
2017-10-09T13:14:05.160Z,14.12
2017-10-09T13:15:15.420Z,14.01
2017-10-09T13:16:25.671Z,13.89
2017-10-09T13:17:35.856Z,14.05
2017-10-09T13:18:46.142Z,13.91
2017-10-09T13:19:56.388Z,13.95
2017-10-09T13:21:06.637Z,13.89
2017-10-09T13:22:16.575Z,13.75
2017-10-09T13:23:27.077Z,14.04
2017-10-09T13:24:37.340Z,14.03
2017-10-09T13:25:47.598Z,14
2017-10-09T13:26:57.544Z,14
2017-10-09T13:28:07.816Z,13.87
2017-10-09T13:29:18.022Z,13.79
2017-10-09T13:30:28.270Z,13.71
2017-10-09T13:31:38.194Z,13.64
2017-10-09T13:32:48.453Z,13.64
2017-10-09T13:33:58.706Z,13.58
2017-10-09T13:35:09.197Z,13.58
2017-10-09T13:36:19.456Z,13.52
2017-10-09T13:37:29.406Z,13.47
2017-10-09T13:38:39.664Z,13.45
2017-10-09T13:39:49.937Z,13.42
2017-10-09T13:40:59.818Z,13.42
2017-10-09T13:42:10.091Z,13.31
2017-10-09T13:43:20.358Z,13.28
2017-10-09T13:44:29.971Z,13.4
2017-10-09T13:46:12.247Z,13.36
2017-10-09T13:51:11.011Z,13.45
2017-10-09T13:52:53.314Z,13.46
2017-10-09T13:54:03.567Z,13.43
2017-10-09T13:56:49.104Z,13.26
2017-10-09T14:10:37.196Z,12.87
2017-10-09T14:13:23.085Z,13.01
2017-10-09T14:15:05.122Z,12.83
2017-10-09T14:22:56.989Z,13.05
2017-10-09T14:25:10.799Z,13.13
2017-10-09T14:40:07.547Z,12.78
2017-10-09T14:41:17.573Z,12.72
2017-10-09T14:42:27.899Z,12.62
2017-10-09T14:43:38.236Z,12.68
2017-10-09T14:44:48.807Z,12.68
2017-10-09T14:45:58.511Z,12.72
2017-10-09T14:47:08.537Z,12.73
2017-10-09T14:48:18.195Z,12.8
2017-10-09T14:49:28.509Z,12.73
2017-10-09T14:50:38.744Z,12.75
2017-10-09T14:51:48.764Z,12.61
2017-10-09T14:52:59.078Z,12.5
2017-10-09T14:54:09.070Z,12.54
2017-10-09T14:55:19.397Z,12.44
2017-10-09T14:56:29.634Z,12.43
2017-10-09T14:57:39.964Z,12.15
2017-10-09T14:58:50.269Z,12.03
2017-10-09T15:00:00.615Z,11.96
2017-10-09T15:01:10.296Z,11.83
2017-10-09T15:02:20.890Z,11.62
2017-10-09T15:03:31.218Z,11.45
2017-10-09T15:04:41.565Z,11.27
2017-10-09T15:05:51.580Z,11.19
2017-10-09T15:07:01.899Z,11.15
2017-10-09T15:08:11.500Z,11.04
2017-10-09T15:09:21.835Z,10.86
2017-10-09T15:10:32.389Z,10.86
2017-10-09T15:11:42.382Z,10.71
2017-10-09T15:12:52.695Z,10.61
2017-10-09T15:14:03.254Z,10.64
2017-10-09T15:15:13.833Z,10.51
2017-10-09T15:16:23.818Z,10.55
2017-10-09T15:17:34.139Z,10.55
2017-10-09T15:18:43.787Z,10.57
2017-10-09T15:19:54.025Z,10.42
2017-10-09T15:21:04.344Z,10.45
2017-10-09T15:22:14.336Z,10.43
2017-10-09T15:23:24.669Z,10.38
2017-10-09T15:24:34.664Z,10.41
2017-10-09T15:25:45.243Z,10.34
2017-10-09T15:26:55.558Z,10.38
2017-10-09T15:28:05.889Z,10.28
2017-10-09T15:29:15.886Z,10.21
2017-10-09T15:30:26.217Z,10.27
2017-10-09T15:31:36.789Z,10.3
2017-10-09T15:32:47.139Z,10.27
2017-10-09T15:33:57.129Z,10.27
2017-10-09T15:35:07.444Z,10.27
2017-10-09T15:36:17.787Z,10.27
2017-10-09T15:37:28.343Z,10.23
2017-10-09T15:38:38.365Z,10.28
2017-10-09T15:39:48.352Z,10.23
2017-10-09T15:40:58.669Z,10.18
2017-10-09T15:42:08.980Z,10.24
2017-10-09T15:43:19.570Z,10.24
2017-10-09T15:44:29.596Z,10.23
2017-10-09T15:45:40.148Z,10.2
2017-10-09T15:46:50.461Z,10.28
2017-10-09T15:48:00.787Z,10.2
2017-10-09T15:49:11.022Z,10.2
2017-10-09T15:50:21.329Z,10.18
2017-10-09T15:51:31.653Z,10.05
2017-10-09T15:52:41.658Z,10.1
2017-10-09T15:53:52.006Z,10.06
2017-10-09T15:55:02.563Z,10.03
2017-10-09T15:56:12.904Z,10.06
2017-10-09T15:57:23.218Z,10.1
2017-10-09T15:58:32.891Z,10.13
2017-10-09T15:59:43.203Z,10.17
2017-10-09T16:00:53.441Z,10.21
2017-10-09T16:02:03.447Z,10.18
2017-10-09T16:03:13.761Z,10.17
2017-10-09T16:04:24.103Z,10.07
2017-10-09T16:05:34.098Z,10.1
2017-10-09T16:06:44.326Z,10.15
2017-10-09T16:07:54.640Z,10.12
2017-10-09T16:09:04.966Z,10.12
2017-10-09T16:10:14.967Z,10.23
2017-10-09T16:11:24.965Z,10.17
2017-10-09T16:12:35.624Z,10.2
2017-10-09T16:13:45.609Z,10.25
2017-10-09T16:14:55.611Z,10.25
2017-10-09T16:16:05.932Z,10.23
2017-10-09T16:17:15.920Z,10.21
2017-10-09T16:18:26.200Z,10.23
2017-10-09T16:19:36.185Z,10.2
2017-10-09T16:20:45.865Z,10.23
2017-10-09T16:21:56.181Z,10.21
2017-10-09T16:23:06.177Z,10.12
2017-10-09T16:24:16.771Z,10.07
2017-10-09T16:25:27.091Z,10.06
2017-10-09T16:26:37.428Z,10.05
2017-10-09T16:27:47.761Z,10.09
2017-10-09T16:28:57.746Z,10.07
2017-10-09T16:30:07.670Z,10.1
2017-10-09T16:31:17.993Z,10.1
2017-10-09T16:32:28.330Z,10.09
2017-10-09T16:33:38.642Z,10.05
2017-10-09T16:34:48.627Z,10.05
2017-10-09T16:35:59.199Z,10.03
2017-10-09T16:37:09.187Z,10.07
2017-10-09T16:38:19.191Z,10.09
2017-10-09T16:39:29.177Z,10.05
2017-10-09T16:40:39.167Z,10.05
2017-10-09T16:41:49.740Z,10.05
2017-10-09T16:42:59.726Z,10.12
2017-10-09T16:44:09.398Z,10.12
2017-10-09T16:45:19.050Z,10.07
2017-10-09T16:46:29.367Z,10.05
2017-10-09T16:47:39.983Z,10.06
2017-10-09T16:48:49.649Z,10.02
2017-10-09T16:49:59.304Z,10.06
2017-10-09T16:51:09.629Z,10.02
2017-10-09T16:52:19.644Z,10.02
2017-10-09T16:53:30.223Z,9.97
2017-10-09T16:54:40.550Z,9.97
2017-10-09T16:55:50.569Z,9.95
2017-10-09T16:57:00.895Z,9.99
2017-10-09T16:58:10.872Z,9.97
2017-10-09T16:59:21.153Z,9.95
2017-10-09T17:00:31.469Z,9.97
2017-10-09T17:01:41.799Z,9.95
2017-10-09T17:02:52.134Z,9.99
2017-10-09T17:04:02.451Z,9.94
2017-10-09T17:05:13.069Z,9.95